Data for 09/04/2013

Time Sea-Level Adjusted Pressure Absolute Pressure Temperature Relative Humidity Dew Point   
(mb) (inHg) (mb) (inHg) (C) (F) (%) (C) (F)
00:05 1025 30.27 854 25.22 16 60.9 86 13.7 56.7
00:10 1024 30.24 854 25.22 16 60.8 86 13.8 56.8
00:15 1024 30.24 854 25.22 16 60.9 87 13.9 57
00:20 1024 30.24 854 25.22 16 60.8 86 13.7 56.7
00:25 1024 30.24 853 25.19 16 60.7 87 13.9 56.9
00:30 1024 30.24 853 25.19 15.9 60.6 87 13.7 56.7
00:35 1024 30.24 853 25.19 15.8 60.4 89 13.9 57.1
00:40 1024 30.24 853 25.19 15.6 60.1 88 13.6 56.5
00:45 1024 30.24 853 25.19 15.7 60.2 89 13.8 56.9
00:50 1024 30.24 853 25.19 15.7 60.2 87 13.5 56.2
00:55 1024 30.24 853 25.19 15.7 60.3 86 13.5 56.3
01:00 1024 30.24 853 25.19 15.7 60.3 86 13.4 56.2
01:05 1024 30.24 853 25.19 15.7 60.3 87 13.5 56.4
01:10 1024 30.24 853 25.19 15.6 60.1 87 13.5 56.3
01:15 1024 30.24 853 25.19 15.7 60.2 86 13.3 55.9
01:20 1024 30.24 853 25.19 15.7 60.3 86 13.3 56
01:25 1024 30.24 853 25.19 15.7 60.3 86 13.3 56
01:30 1024 30.24 853 25.19 15.8 60.4 85 13.3 55.9
01:35 1024 30.24 853 25.19 15.8 60.4 85 13.3 55.9
01:40 1024 30.24 853 25.19 15.8 60.4 85 13.3 56
01:45 1024 30.24 853 25.19 15.8 60.4 85 13.3 55.9
01:50 1023 30.21 853 25.19 15.8 60.5 86 13.4 56.1
01:55 1023 30.21 853 25.19 15.8 60.5 85 13.4 56.1
02:00 1023 30.21 853 25.19 15.7 60.3 86 13.4 56.1
02:05 1023 30.21 853 25.19 15.6 60 86 13.2 55.8
02:10 1023 30.21 853 25.19 15.5 59.9 85 13.1 55.6
02:15 1023 30.21 853 25.19 15.4 59.8 85 13 55.4
02:20 1023 30.21 853 25.19 15.5 59.8 87 13.3 55.9
02:25 1023 30.21 853 25.19 15.5 59.8 83 12.7 54.8
02:30 1023 30.21 853 25.19 15.6 60.1 84 13 55.4
02:35 1023 30.21 853 25.19 15.3 59.6 84 12.7 54.9
02:40 1023 30.21 853 25.19 15.2 59.3 84 12.5 54.6
02:45 1023 30.21 853 25.19 15.3 59.5 84 12.6 54.8
02:50 1023 30.21 853 25.19 15.2 59.4 84 12.6 54.6
02:55 1023 30.21 853 25.19 15.2 59.4 83 12.4 54.4
03:00 1023 30.21 852 25.16 15 59 85 12.6 54.6
03:05 1023 30.21 852 25.16 14.8 58.6 85 12.4 54.3
03:10 1023 30.21 853 25.19 14.8 58.6 85 12.3 54.1
03:15 1023 30.21 852 25.16 14.9 58.9 84 12.3 54.1
03:20 1023 30.21 853 25.19 14.9 58.9 84 12.3 54.2
03:25 1023 30.21 853 25.19 14.8 58.6 87 12.7 54.9
03:30 1023 30.21 853 25.19 15.2 59.4 81 11.9 53.5
03:35 1023 30.21 853 25.19 15.6 60 79 11.9 53.5
03:40 1023 30.21 853 25.19 15.8 60.5 79 12.2 53.9
03:45 1023 30.21 853 25.19 15.6 60.1 81 12.3 54.2
03:50 1023 30.21 853 25.19 15.4 59.6 81 12.2 53.9
03:55 1024 30.24 853 25.19 15.4 59.8 81 12.2 54
04:00 1024 30.24 853 25.19 15.6 60 81 12.4 54.3
04:05 1024 30.24 853 25.19 15.4 59.7 81 12.2 54
04:10 1024 30.24 853 25.19 15.2 59.3 82 12.2 54
04:15 1024 30.24 853 25.19 15.1 59.2 84 12.4 54.3
04:20 1024 30.24 853 25.19 15 59 85 12.5 54.5
04:25 1024 30.24 853 25.19 14.9 58.8 85 12.4 54.3
04:30 1024 30.24 853 25.19 14.7 58.5 86 12.4 54.2
04:35 1024 30.24 853 25.19 14.7 58.5 84 12.1 53.8
04:40 1024 30.24 853 25.19 14.8 58.6 84 12.1 53.9
04:45 1024 30.24 853 25.19 14.5 58.1 86 12.2 54
04:50 1024 30.24 853 25.19 14.1 57.4 87 12 53.6
04:55 1024 30.24 853 25.19 14.2 57.6 86 11.9 53.4
05:00 1024 30.24 853 25.19 14.1 57.4 86 11.8 53.2
05:05 1024 30.24 853 25.19 13.9 57 86 11.6 52.8
05:10 1024 30.24 853 25.19 13.8 56.9 86 11.6 52.9
05:15 1024 30.24 853 25.19 13.7 56.7 87 11.6 52.9
05:20 1024 30.24 853 25.19 13.4 56.2 88 11.5 52.7
05:25 1024 30.24 853 25.19 13.2 55.8 89 11.5 52.6
05:30 1024 30.24 853 25.19 13.1 55.5 89 11.3 52.4
05:35 1024 30.24 853 25.19 13.1 55.5 88 11.2 52.2
05:40 1024 30.24 853 25.19 13.1 55.5 89 11.2 52.2
05:45 1024 30.24 853 25.19 13.1 55.5 88 11.1 52
05:50 1024 30.24 853 25.19 13 55.4 88 11.1 52
05:55 1024 30.24 853 25.19 12.8 55 88 10.9 51.7
06:00 1024 30.24 853 25.19 12.8 55 88 10.8 51.4
06:05 1024 30.24 854 25.22 12.8 55.1 87 10.8 51.5
06:10 1024 30.24 854 25.22 12.7 54.9 88 10.8 51.4
06:15 1024 30.24 854 25.22 12.6 54.7 88 10.7 51.3
06:20 1024 30.24 854 25.22 12.6 54.7 88 10.7 51.3
06:25 1024 30.24 854 25.22 12.8 55.1 87 10.7 51.3
06:30 1024 30.24 854 25.22 13.3 56 85 10.9 51.6
06:35 1024 30.24 854 25.22 13.7 56.6 83 10.9 51.6
06:40 1024 30.24 854 25.22 13.9 56.9 83 11.1 52
06:45 1024 30.24 854 25.22 14 57.1 83 11.2 52.2
06:50 1025 30.27 854 25.22 14 57.2 83 11.2 52.2
06:55 1025 30.27 854 25.22 14.2 57.6 83 11.4 52.5
07:00 1025 30.27 854 25.22 14 57.2 83 11.2 52.2
07:05 1025 30.27 854 25.22 14.2 57.5 82 11.2 52.2
07:10 1025 30.27 854 25.22 14.3 57.8 81 11.2 52.1
07:15 1025 30.27 854 25.22 14.8 58.6 81 11.5 52.6
07:20 1025 30.27 854 25.22 15 59.1 80 11.7 53
07:25 1025 30.27 854 25.22 15.4 59.8 79 11.8 53.3
07:30 1025 30.27 854 25.22 15.6 60.1 79 12 53.5
07:35 1025 30.27 854 25.22 16 60.9 77 12 53.6
07:40 1025 30.27 854 25.22 16.4 61.4 76 12.1 53.8
07:45 1025 30.27 854 25.22 16.6 61.8 76 12.4 54.4
07:50 1025 30.27 854 25.22 16.8 62.3 75 12.5 54.5
07:55 1025 30.27 854 25.22 17.4 63.3 73 12.5 54.5
08:00 1025 30.27 854 25.22 17.9 64.2 71 12.6 54.8
08:05 1025 30.27 854 25.22 18.2 64.8 69 12.4 54.4
08:10 1025 30.27 854 25.22 18.7 65.7 69 13 55.4
08:15 1025 30.27 854 25.22 19.1 66.5 65 12.6 54.7
08:20 1025 30.27 854 25.22 19.4 66.9 65 12.7 54.9
08:25 1025 30.27 854 25.22 19.1 66.3 67 12.9 55.2
08:30 1025 30.27 854 25.22 18.8 65.8 67 12.5 54.5
08:35 1025 30.27 854 25.22 18.8 65.8 66 12.5 54.4
08:40 1025 30.27 854 25.22 19.2 66.5 65 12.6 54.7
08:45 1025 30.27 854 25.22 19.7 67.5 64 12.8 55
08:50 1025 30.27 854 25.22 20 68 63 12.8 55
08:55 1025 30.27 854 25.22 20.1 68.2 62 12.7 54.9
09:00 1025 30.27 854 25.22 20.5 68.9 60 12.6 54.7
09:05 1025 30.27 854 25.22 21.2 70.2 58 12.8 55
09:10 1025 30.27 854 25.22 21.5 70.6 59 13.2 55.8
09:15 1025 30.27 854 25.22 21.5 70.8 57 12.9 55.1
09:20 1025 30.27 854 25.22 21.7 71.1 56 12.8 55
09:25 1025 30.27 854 25.22 21 69.8 61 13.2 55.8
09:30 1025 30.27 854 25.22 20.4 68.7 60 12.4 54.3
09:35 1025 30.27 854 25.22 21.5 70.7 56 12.4 54.3
09:40 1025 30.27 854 25.22 22 71.6 55 12.7 54.8
09:45 1025 30.27 854 25.22 21.6 70.9 56 12.7 54.8
09:50 1025 30.27 854 25.22 21.5 70.7 57 12.7 54.8
09:55 1025 30.27 854 25.22 21.5 70.8 54 12.1 53.8
10:00 1025 30.27 854 25.22 22.3 72.2 53 12.5 54.5
10:05 1025 30.27 854 25.22 22.3 72.1 54 12.7 54.9
10:10 1025 30.27 854 25.22 22.8 73.1 52 12.7 54.8
10:15 1025 30.27 854 25.22 22.3 72.2 54 12.6 54.8
10:20 1025 30.27 854 25.22 22.3 72.2 52 12.2 53.9
10:25 1025 30.27 854 25.22 22.1 71.8 53 12.2 53.9
10:30 1025 30.27 854 25.22 22.8 73 51 12.3 54.1
10:35 1025 30.27 854 25.22 23.4 74 52 13.2 55.7
10:40 1025 30.27 854 25.22 23 73.5 54 13.4 56.1
10:45 1025 30.27 854 25.22 23 73.5 53 13 55.4
10:50 1024 30.24 854 25.22 23.6 74.4 49 12.4 54.4
10:55 1024 30.24 854 25.22 23.9 75 49 12.7 54.9
11:00 1024 30.24 854 25.22 23.8 74.8 51 13.4 56
11:05 1024 30.24 854 25.22 23.9 75 48 12.4 54.3
11:10 1024 30.24 854 25.22 24.7 76.5 47 12.7 54.9
11:15 1024 30.24 854 25.22 24.8 76.6 47 13 55.4
11:20 1024 30.24 854 25.22 25.2 77.4 45 12.7 54.9
11:25 1024 30.24 854 25.22 25.4 77.8 43 12.1 53.7
11:30 1024 30.24 854 25.22 25.4 77.7 46 13.1 55.6
11:35 1024 30.24 853 25.19 25.2 77.3 46 13.1 55.5
11:40 1024 30.24 853 25.19 25.7 78.2 44 12.8 55.1
11:45 1024 30.24 853 25.19 25.4 77.7 44 12.4 54.3
11:50 1024 30.24 853 25.19 25.4 77.6 44 12.3 54.1
11:55 1024 30.24 853 25.19 25.2 77.4 44 12.4 54.3
12:00 1024 30.24 853 25.19 25.7 78.2 43 12.3 54.2
12:05 1024 30.24 853 25.19 25.7 78.3 43 12.3 54.1
12:10 1024 30.24 853 25.19 26.1 78.9 41 11.8 53.3
12:15 1024 30.24 853 25.19 25.1 77.1 43 11.9 53.4
12:20 1024 30.24 853 25.19 24.9 76.9 43 11.7 53
12:25 1024 30.24 853 25.19 24.6 76.4 42 11.2 52.2
12:30 1024 30.24 853 25.19 25.8 78.5 42 12 53.6
12:35 1024 30.24 853 25.19 25 76.9 42 11.5 52.8
12:40 1024 30.24 853 25.19 25.5 77.9 41 11.7 53
12:45 1024 30.24 853 25.19 26.2 79.2 40 12 53.5
12:50 1024 30.24 853 25.19 26.5 79.7 39 11.5 52.7
12:55 1024 30.24 853 25.19 26.6 79.9 39 11.8 53.2
13:00 1024 30.24 853 25.19 26.7 80.1 38 11.5 52.6
13:05 1024 30.24 853 25.19 26.8 80.3 39 11.8 53.3
13:10 1024 30.24 853 25.19 27.1 80.7 37 11.5 52.7
13:15 1024 30.24 853 25.19 27.3 81.2 37 11.6 52.8
13:20 1024 30.24 853 25.19 27.2 81 36 11.1 52
13:25 1024 30.24 853 25.19 27.8 82.1 34 10.8 51.5
13:30 1024 30.24 853 25.19 28.6 83.5 32 10.5 51
13:35 1024 30.24 853 25.19 29.1 84.4 33 11.3 52.4
13:40 1024 30.24 853 25.19 28.7 83.6 33 11.2 52.2
13:45 1023 30.21 853 25.19 28.4 83 34 11.3 52.3
13:50 1023 30.21 853 25.19 28.4 83 33 11 51.8
13:55 1023 30.21 853 25.19 27.8 82 35 11.1 51.9
14:00 1023 30.21 853 25.19 28 82.4 34 10.8 51.5
14:05 1023 30.21 853 25.19 28.2 82.8 32 10.3 50.5
14:10 1023 30.21 853 25.19 27.5 81.6 34 10.5 50.8
14:15 1023 30.21 853 25.19 27.7 81.9 32 10 50
14:20 1023 30.21 852 25.16 27.6 81.6 33 10.3 50.6
14:25 1023 30.21 852 25.16 28.5 83.3 32 10.5 50.9
14:30 1023 30.21 852 25.16 28.6 83.4 32 10.5 50.9
14:35 1023 30.21 852 25.16 28.2 82.7 32 10.3 50.5
14:40 1023 30.21 852 25.16 28.9 84 32 10.7 51.2
14:45 1023 30.21 852 25.16 28.1 82.6 33 10.5 50.9
14:50 1023 30.21 852 25.16 28.3 82.9 31 9.9 49.8
14:55 1023 30.21 852 25.16 28.9 84 30 10 50
15:00 1023 30.21 852 25.16 29.3 84.7 30 10.1 50.2
15:05 1023 30.21 852 25.16 29.2 84.5 30 10.3 50.6
15:10 1023 30.21 852 25.16 28.8 83.9 29 9.1 48.4
15:15 1023 30.21 852 25.16 29.3 84.7 29 9.8 49.7
15:20 1023 30.21 852 25.16 28.9 83.9 29 9.5 49.1
15:25 1023 30.21 852 25.16 28.8 83.8 29 9.4 49
15:30 1023 30.21 852 25.16 29.7 85.5 28 9.5 49.2
15:35 1023 30.21 852 25.16 28.6 83.5 31 9.9 49.9
15:40 1023 30.21 852 25.16 28.7 83.6 29 9.3 48.7
15:45 1023 30.21 852 25.16 28.2 82.8 31 9.8 49.7
15:50 1023 30.21 852 25.16 27.7 81.9 32 9.6 49.3
15:55 1023 30.21 852 25.16 28 82.3 30 9.1 48.4
16:00 1023 30.21 852 25.16 28.7 83.6 27 8.1 46.6
16:05 1023 30.21 852 25.16 28.8 83.8 29 9.3 48.7
16:10 1023 30.21 852 25.16 29.1 84.3 28 9.1 48.4
16:15 1023 30.21 852 25.16 29.3 84.7 27 8.6 47.5
16:20 1022 30.18 852 25.16 29.7 85.4 28 9.3 48.8
16:25 1022 30.18 852 25.16 29.7 85.5 28 9.4 48.9
16:30 1022 30.18 852 25.16 29.8 85.7 28 9.6 49.3
16:35 1022 30.18 852 25.16 28.8 83.9 29 9.2 48.6
16:40 1022 30.18 852 25.16 28.7 83.7 28 8.7 47.7
16:45 1022 30.18 852 25.16 29 84.2 28 9 48.2
16:50 1022 30.18 852 25.16 29.3 84.7 27 8.5 47.4
16:55 1022 30.18 852 25.16 29.6 85.2 28 9.3 48.8
17:00 1022 30.18 852 25.16 28.7 83.6 29 8.9 48.1
17:05 1022 30.18 852 25.16 28 82.5 29 8.7 47.7
17:10 1022 30.18 852 25.16 28.2 82.7 29 8.9 48
17:15 1022 30.18 851 25.13 28.1 82.7 30 9.2 48.5
17:20 1022 30.18 851 25.13 27.6 81.7 31 9.1 48.4
17:25 1022 30.18 851 25.13 27.8 82 29 8.6 47.5
17:30 1022 30.18 851 25.13 27.9 82.2 29 8.6 47.6
17:35 1022 30.18 851 25.13 27.9 82.2 29 8.5 47.3
17:40 1022 30.18 851 25.13 27.6 81.8 30 8.6 47.5
17:45 1022 30.18 851 25.13 27.6 81.7 29 8.4 47.1
17:50 1022 30.18 851 25.13 27.6 81.7 30 8.9 48
17:55 1022 30.18 851 25.13 27.4 81.3 31 9.1 48.4
18:00 1022 30.18 851 25.13 27.4 81.3 30 8.5 47.4
18:05 1022 30.18 851 25.13 27.3 81.2 30 8.7 47.6
18:10 1022 30.18 851 25.13 27.3 81.1 31 9 48.1
18:15 1022 30.18 851 25.13 27.2 80.9 32 9.3 48.8
18:20 1022 30.18 851 25.13 27.1 80.8 31 8.9 47.9
18:25 1022 30.18 851 25.13 26.9 80.3 32 8.9 48
18:30 1022 30.18 851 25.13 26.6 79.9 32 9 48.2
18:35 1022 30.18 851 25.13 26.5 79.7 34 9.7 49.4
18:40 1022 30.18 851 25.13 26.5 79.6 33 8.9 48.1
18:45 1022 30.18 851 25.13 26.4 79.5 34 9.5 49
18:50 1022 30.18 851 25.13 26.3 79.3 33 9.2 48.5
18:55 1022 30.18 851 25.13 26.2 79.1 34 9.2 48.6
19:00 1022 30.18 851 25.13 26 78.8 39 11.1 51.9
19:05 1022 30.18 851 25.13 25.7 78.2 39 11 51.9
19:10 1022 30.18 851 25.13 25.2 77.4 39 10.6 51
19:15 1022 30.18 851 25.13 24.9 76.7 41 11 51.8
19:20 1022 30.18 851 25.13 24.6 76.3 45 12.2 53.9
19:25 1022 30.18 851 25.13 23.9 75 50 13.1 55.7
19:30 1022 30.18 851 25.13 22.9 73.3 49 11.9 53.4
19:35 1022 30.18 851 25.13 22.3 72.1 51 11.9 53.5
19:40 1022 30.18 852 25.16 22 71.6 52 11.8 53.3
19:45 1022 30.18 852 25.16 22 71.5 51 11.4 52.6
19:50 1022 30.18 852 25.16 21.7 71 54 12 53.6
19:55 1022 30.18 852 25.16 21.1 70 54 11.5 52.8
20:00 1023 30.21 852 25.16 20.9 69.6 51 10.6 51.1
20:05 1023 30.21 852 25.16 20.9 69.7 51 10.7 51.2
20:10 1023 30.21 852 25.16 20.9 69.5 50 10.1 50.1
20:15 1023 30.21 852 25.16 21 69.9 49 10 50.1
20:20 1023 30.21 852 25.16 21.2 70.2 50 10.6 51.1
20:25 1023 30.21 852 25.16 21.2 70.2 49 10.2 50.4
20:30 1023 30.21 852 25.16 20.9 69.5 51 10.5 50.9
20:35 1023 30.21 852 25.16 20.5 68.9 51 10.1 50.1
20:40 1023 30.21 852 25.16 20.5 69 50 10 49.9
20:45 1023 30.21 852 25.16 20.6 69 50 10.1 50.2
20:50 1023 30.21 852 25.16 20.4 68.7 52 10.2 50.3
20:55 1023 30.21 852 25.16 20.3 68.6 51 10.1 50.2
21:00 1023 30.21 852 25.16 20.1 68.2 52 10.1 50.2
21:05 1023 30.21 852 25.16 20 67.9 53 10.3 50.6
21:10 1023 30.21 852 25.16 19.8 67.7 52 9.9 49.8
21:15 1023 30.21 852 25.16 19.9 67.8 51 9.6 49.3
21:20 1023 30.21 852 25.16 20.5 68.9 47 9.1 48.4
21:25 1023 30.21 852 25.16 20.9 69.6 49 9.8 49.7
21:30 1023 30.21 852 25.16 20.5 69 52 10.6 51
21:35 1023 30.21 852 25.16 20.4 68.7 51 10 49.9
21:40 1023 30.21 852 25.16 20.1 68.3 51 10 49.9
21:45 1023 30.21 852 25.16 20 67.9 52 10.1 50.1
21:50 1023 30.21 852 25.16 19.9 67.9 54 10.4 50.8
21:55 1023 30.21 852 25.16 20 68 53 10.2 50.4
22:00 1023 30.21 852 25.16 20.1 68.2 53 10.5 50.8
22:05 1023 30.21 852 25.16 20.2 68.4 51 10 50
22:10 1023 30.21 852 25.16 20.3 68.6 51 9.9 49.8
22:15 1023 30.21 852 25.16 20.5 68.9 49 9.4 49
22:20 1023 30.21 852 25.16 20.7 69.3 48 9.4 49
22:25 1023 30.21 852 25.16 20.7 69.2 48 9.3 48.8
22:30 1023 30.21 852 25.16 20.6 69 49 9.7 49.4
22:35 1023 30.21 852 25.16 20.5 68.9 50 9.9 49.9
22:40 1023 30.21 852 25.16 20.4 68.7 49 9.6 49.3
22:45 1023 30.21 852 25.16 20.5 68.8 52 10.4 50.8
22:50 1023 30.21 852 25.16 20.3 68.5 50 9.6 49.2
22:55 1023 30.21 852 25.16 20.1 68.1 50 9.5 49.2
23:00 1023 30.21 852 25.16 19.9 67.9 50 9.2 48.6
23:05 1023 30.21 852 25.16 20 67.9 49 9.1 48.3
23:10 1023 30.21 852 25.16 20.1 68.1 50 9.3 48.8
23:15 1023 30.21 852 25.16 20 68 50 9.3 48.8
23:20 1023 30.21 852 25.16 20.2 68.4 48 8.9 48
23:25 1023 30.21 852 25.16 20.3 68.5 47 8.7 47.7
23:30 1023 30.21 852 25.16 20.1 68.1 47 8.4 47.2
23:35 1023 30.21 852 25.16 20 67.9 47 8.6 47.5
23:40 1023 30.21 852 25.16 19.8 67.6 48 8.5 47.3
23:45 1023 30.21 852 25.16 19.6 67.2 48 8.4 47
23:50 1023 30.21 852 25.16 19.5 67 48 8.4 47.1
23:55 1023 30.21 852 25.16 19.4 66.8 49 8.4 47.1
24:00 1023 30.21 852 25.16 19.4 66.8 49 8.4 47.2